sensor_id;sensor_type;location;lat;lon;timestamp;P1;durP1;ratioP1;P2;durP2;ratioP2
60352;SDS011;46196;52.970;6.954;2023-11-21T00:02:04;31.63;;;11.68;;
60352;SDS011;46196;52.970;6.954;2023-11-21T00:04:30;33.95;;;11.68;;
60352;SDS011;46196;52.970;6.954;2023-11-21T00:06:55;26.15;;;11.20;;
60352;SDS011;46196;52.970;6.954;2023-11-21T00:09:21;30.90;;;12.13;;
60352;SDS011;46196;52.970;6.954;2023-11-21T00:11:46;30.42;;;12.70;;
60352;SDS011;46196;52.970;6.954;2023-11-21T00:14:12;28.23;;;11.90;;
60352;SDS011;46196;52.970;6.954;2023-11-21T00:16:40;27.88;;;12.05;;
60352;SDS011;46196;52.970;6.954;2023-11-21T00:19:06;29.77;;;12.45;;
60352;SDS011;46196;52.970;6.954;2023-11-21T00:21:32;27.80;;;11.77;;
60352;SDS011;46196;52.970;6.954;2023-11-21T00:23:58;28.05;;;11.70;;
60352;SDS011;46196;52.970;6.954;2023-11-21T00:26:23;31.45;;;12.38;;
60352;SDS011;46196;52.970;6.954;2023-11-21T00:28:49;34.30;;;12.60;;
60352;SDS011;46196;52.970;6.954;2023-11-21T00:31:15;27.73;;;11.90;;
60352;SDS011;46196;52.970;6.954;2023-11-21T00:33:41;24.73;;;11.45;;
60352;SDS011;46196;52.970;6.954;2023-11-21T00:36:08;32.47;;;12.85;;
60352;SDS011;46196;52.970;6.954;2023-11-21T00:38:37;29.98;;;11.93;;
60352;SDS011;46196;52.970;6.954;2023-11-21T00:41:06;33.60;;;12.60;;
60352;SDS011;46196;52.970;6.954;2023-11-21T00:43:32;29.00;;;11.57;;
60352;SDS011;46196;52.970;6.954;2023-11-21T00:45:58;28.88;;;11.93;;
60352;SDS011;46196;52.970;6.954;2023-11-21T00:48:24;37.08;;;13.30;;
60352;SDS011;46196;52.970;6.954;2023-11-21T00:50:50;28.63;;;13.73;;
60352;SDS011;46196;52.970;6.954;2023-11-21T00:53:15;33.90;;;13.82;;
60352;SDS011;46196;52.970;6.954;2023-11-21T00:55:41;33.58;;;13.73;;
60352;SDS011;46196;52.970;6.954;2023-11-21T00:58:06;28.02;;;12.07;;
60352;SDS011;46196;52.970;6.954;2023-11-21T01:00:33;34.30;;;13.13;;
60352;SDS011;46196;52.970;6.954;2023-11-21T01:02:59;34.05;;;13.18;;
60352;SDS011;46196;52.970;6.954;2023-11-21T01:05:25;28.00;;;12.95;;
60352;SDS011;46196;52.970;6.954;2023-11-21T01:07:51;27.25;;;12.15;;
60352;SDS011;46196;52.970;6.954;2023-11-21T01:10:17;32.67;;;12.85;;
60352;SDS011;46196;52.970;6.954;2023-11-21T01:12:43;32.72;;;12.60;;
60352;SDS011;46196;52.970;6.954;2023-11-21T01:15:09;30.60;;;12.57;;
60352;SDS011;46196;52.970;6.954;2023-11-21T01:17:37;30.85;;;12.60;;
60352;SDS011;46196;52.970;6.954;2023-11-21T01:20:03;34.22;;;13.80;;
60352;SDS011;46196;52.970;6.954;2023-11-21T01:22:36;30.95;;;13.25;;
60352;SDS011;46196;52.970;6.954;2023-11-21T01:25:02;29.50;;;12.38;;
60352;SDS011;46196;52.970;6.954;2023-11-21T01:30:01;23.52;;;10.82;;
60352;SDS011;46196;52.970;6.954;2023-11-21T01:32:27;23.65;;;10.88;;
60352;SDS011;46196;52.970;6.954;2023-11-21T01:34:53;37.83;;;12.98;;
60352;SDS011;46196;52.970;6.954;2023-11-21T01:37:20;25.40;;;10.55;;
60352;SDS011;46196;52.970;6.954;2023-11-21T01:39:46;21.13;;;9.82;;
60352;SDS011;46196;52.970;6.954;2023-11-21T01:42:12;28.13;;;10.80;;
60352;SDS011;46196;52.970;6.954;2023-11-21T01:44:38;22.27;;;10.80;;
60352;SDS011;46196;52.970;6.954;2023-11-21T01:47:07;22.65;;;10.35;;
60352;SDS011;46196;52.970;6.954;2023-11-21T01:52:00;29.15;;;11.25;;
60352;SDS011;46196;52.970;6.954;2023-11-21T01:54:29;22.10;;;10.65;;
60352;SDS011;46196;52.970;6.954;2023-11-21T01:56:57;30.08;;;12.90;;
60352;SDS011;46196;52.970;6.954;2023-11-21T01:59:28;34.53;;;12.65;;
60352;SDS011;46196;52.970;6.954;2023-11-21T02:01:59;30.98;;;12.43;;
60352;SDS011;46196;52.970;6.954;2023-11-21T02:04:25;25.55;;;11.93;;
60352;SDS011;46196;52.970;6.954;2023-11-21T02:06:50;31.52;;;13.18;;
60352;SDS011;46196;52.970;6.954;2023-11-21T02:09:16;36.20;;;12.88;;
60352;SDS011;46196;52.970;6.954;2023-11-21T02:11:47;25.65;;;12.07;;
60352;SDS011;46196;52.970;6.954;2023-11-21T02:14:14;25.77;;;12.27;;
60352;SDS011;46196;52.970;6.954;2023-11-21T02:16:40;31.90;;;12.98;;
60352;SDS011;46196;52.970;6.954;2023-11-21T02:19:06;30.63;;;11.88;;
60352;SDS011;46196;52.970;6.954;2023-11-21T02:21:34;30.23;;;11.88;;
60352;SDS011;46196;52.970;6.954;2023-11-21T02:24:01;29.95;;;12.02;;
60352;SDS011;46196;52.970;6.954;2023-11-21T02:26:26;27.88;;;11.95;;
60352;SDS011;46196;52.970;6.954;2023-11-21T02:28:52;30.52;;;12.10;;
60352;SDS011;46196;52.970;6.954;2023-11-21T02:31:18;32.13;;;12.95;;
60352;SDS011;46196;52.970;6.954;2023-11-21T02:33:44;32.10;;;12.20;;
60352;SDS011;46196;52.970;6.954;2023-11-21T02:36:10;37.70;;;13.10;;
60352;SDS011;46196;52.970;6.954;2023-11-21T02:38:35;36.22;;;13.27;;
60352;SDS011;46196;52.970;6.954;2023-11-21T02:41:01;25.33;;;12.02;;
60352;SDS011;46196;52.970;6.954;2023-11-21T02:43:27;25.52;;;11.55;;
60352;SDS011;46196;52.970;6.954;2023-11-21T02:45:53;28.98;;;12.38;;
60352;SDS011;46196;52.970;6.954;2023-11-21T02:48:18;27.38;;;12.32;;
60352;SDS011;46196;52.970;6.954;2023-11-21T02:50:44;24.67;;;12.10;;
60352;SDS011;46196;52.970;6.954;2023-11-21T02:53:09;25.52;;;11.05;;
60352;SDS011;46196;52.970;6.954;2023-11-21T02:55:36;24.42;;;12.00;;
60352;SDS011;46196;52.970;6.954;2023-11-21T02:58:02;28.10;;;11.60;;
60352;SDS011;46196;52.970;6.954;2023-11-21T03:00:31;30.58;;;11.60;;
60352;SDS011;46196;52.970;6.954;2023-11-21T03:02:56;28.00;;;12.68;;
60352;SDS011;46196;52.970;6.954;2023-11-21T03:05:22;30.40;;;12.93;;
60352;SDS011;46196;52.970;6.954;2023-11-21T03:07:48;34.70;;;13.70;;
60352;SDS011;46196;52.970;6.954;2023-11-21T03:10:14;29.60;;;12.38;;
60352;SDS011;46196;52.970;6.954;2023-11-21T03:12:39;34.22;;;12.85;;
60352;SDS011;46196;52.970;6.954;2023-11-21T03:15:08;30.55;;;13.38;;
60352;SDS011;46196;52.970;6.954;2023-11-21T03:17:34;30.85;;;12.68;;
60352;SDS011;46196;52.970;6.954;2023-11-21T03:20:01;25.30;;;12.52;;
60352;SDS011;46196;52.970;6.954;2023-11-21T03:22:28;25.98;;;11.75;;
60352;SDS011;46196;52.970;6.954;2023-11-21T03:24:53;28.15;;;13.05;;
60352;SDS011;46196;52.970;6.954;2023-11-21T03:27:19;29.73;;;12.90;;
60352;SDS011;46196;52.970;6.954;2023-11-21T03:29:44;31.40;;;13.10;;
60352;SDS011;46196;52.970;6.954;2023-11-21T03:32:11;25.27;;;12.65;;
60352;SDS011;46196;52.970;6.954;2023-11-21T03:34:49;28.15;;;12.70;;
60352;SDS011;46196;52.970;6.954;2023-11-21T03:37:21;26.70;;;12.38;;
60352;SDS011;46196;52.970;6.954;2023-11-21T03:39:47;28.95;;;12.75;;
60352;SDS011;46196;52.970;6.954;2023-11-21T03:42:13;27.60;;;12.23;;
60352;SDS011;46196;52.970;6.954;2023-11-21T03:44:38;29.73;;;12.65;;
60352;SDS011;46196;52.970;6.954;2023-11-21T03:47:04;36.75;;;13.90;;
60352;SDS011;46196;52.970;6.954;2023-11-21T03:49:30;24.67;;;13.07;;
60352;SDS011;46196;52.970;6.954;2023-11-21T03:51:56;28.30;;;13.07;;
60352;SDS011;46196;52.970;6.954;2023-11-21T03:54:21;33.38;;;13.23;;
60352;SDS011;46196;52.970;6.954;2023-11-21T03:56:47;26.55;;;12.95;;
60352;SDS011;46196;52.970;6.954;2023-11-21T03:59:14;33.83;;;13.10;;
60352;SDS011;46196;52.970;6.954;2023-11-21T04:01:39;32.35;;;13.80;;
60352;SDS011;46196;52.970;6.954;2023-11-21T04:04:05;30.83;;;13.90;;
60352;SDS011;46196;52.970;6.954;2023-11-21T04:06:31;30.42;;;13.43;;
60352;SDS011;46196;52.970;6.954;2023-11-21T04:08:58;31.27;;;13.43;;
60352;SDS011;46196;52.970;6.954;2023-11-21T04:11:23;31.80;;;13.65;;
60352;SDS011;46196;52.970;6.954;2023-11-21T04:13:49;26.05;;;11.73;;
60352;SDS011;46196;52.970;6.954;2023-11-21T04:16:15;32.58;;;12.75;;
60352;SDS011;46196;52.970;6.954;2023-11-21T04:18:41;30.42;;;13.38;;
60352;SDS011;46196;52.970;6.954;2023-11-21T04:21:06;28.58;;;12.70;;
60352;SDS011;46196;52.970;6.954;2023-11-21T04:23:33;27.02;;;12.73;;
60352;SDS011;46196;52.970;6.954;2023-11-21T04:25:59;25.88;;;12.20;;
60352;SDS011;46196;52.970;6.954;2023-11-21T04:28:28;27.85;;;12.98;;
60352;SDS011;46196;52.970;6.954;2023-11-21T04:30:54;35.92;;;14.18;;
60352;SDS011;46196;52.970;6.954;2023-11-21T04:33:19;29.35;;;13.07;;
60352;SDS011;46196;52.970;6.954;2023-11-21T04:35:46;27.48;;;12.80;;
60352;SDS011;46196;52.970;6.954;2023-11-21T04:38:12;26.85;;;13.32;;
60352;SDS011;46196;52.970;6.954;2023-11-21T04:40:37;28.10;;;13.98;;
60352;SDS011;46196;52.970;6.954;2023-11-21T04:43:03;26.70;;;13.00;;
60352;SDS011;46196;52.970;6.954;2023-11-21T04:45:29;32.97;;;13.60;;
60352;SDS011;46196;52.970;6.954;2023-11-21T04:47:55;28.65;;;12.15;;
60352;SDS011;46196;52.970;6.954;2023-11-21T04:50:21;23.73;;;12.65;;
60352;SDS011;46196;52.970;6.954;2023-11-21T04:52:47;25.10;;;12.88;;
60352;SDS011;46196;52.970;6.954;2023-11-21T04:55:12;28.23;;;13.98;;
60352;SDS011;46196;52.970;6.954;2023-11-21T04:57:38;23.30;;;13.30;;
60352;SDS011;46196;52.970;6.954;2023-11-21T05:00:08;28.73;;;14.60;;
60352;SDS011;46196;52.970;6.954;2023-11-21T05:02:35;30.67;;;14.25;;
60352;SDS011;46196;52.970;6.954;2023-11-21T05:05:01;32.30;;;14.65;;
60352;SDS011;46196;52.970;6.954;2023-11-21T05:07:27;35.63;;;15.35;;
60352;SDS011;46196;52.970;6.954;2023-11-21T05:09:54;32.33;;;13.38;;
60352;SDS011;46196;52.970;6.954;2023-11-21T05:12:21;31.38;;;15.07;;
60352;SDS011;46196;52.970;6.954;2023-11-21T05:14:48;31.67;;;15.25;;
60352;SDS011;46196;52.970;6.954;2023-11-21T05:17:14;29.63;;;14.15;;
60352;SDS011;46196;52.970;6.954;2023-11-21T05:19:40;26.63;;;14.60;;
60352;SDS011;46196;52.970;6.954;2023-11-21T05:22:06;31.15;;;14.38;;
60352;SDS011;46196;52.970;6.954;2023-11-21T05:24:33;28.60;;;13.32;;
60352;SDS011;46196;52.970;6.954;2023-11-21T05:27:00;32.17;;;13.60;;
60352;SDS011;46196;52.970;6.954;2023-11-21T05:29:25;28.65;;;12.98;;
60352;SDS011;46196;52.970;6.954;2023-11-21T05:31:52;28.30;;;12.88;;
60352;SDS011;46196;52.970;6.954;2023-11-21T05:34:18;31.10;;;13.57;;
60352;SDS011;46196;52.970;6.954;2023-11-21T05:36:44;39.45;;;16.45;;
60352;SDS011;46196;52.970;6.954;2023-11-21T05:39:13;30.83;;;15.20;;
60352;SDS011;46196;52.970;6.954;2023-11-21T05:41:42;27.48;;;13.50;;
60352;SDS011;46196;52.970;6.954;2023-11-21T05:44:08;34.50;;;14.98;;
60352;SDS011;46196;52.970;6.954;2023-11-21T05:46:34;27.15;;;14.23;;
60352;SDS011;46196;52.970;6.954;2023-11-21T05:49:00;30.52;;;14.50;;
60352;SDS011;46196;52.970;6.954;2023-11-21T05:51:25;32.33;;;14.73;;
60352;SDS011;46196;52.970;6.954;2023-11-21T05:53:51;33.80;;;14.43;;
60352;SDS011;46196;52.970;6.954;2023-11-21T05:56:16;40.15;;;15.60;;
60352;SDS011;46196;52.970;6.954;2023-11-21T05:58:43;35.53;;;15.93;;
60352;SDS011;46196;52.970;6.954;2023-11-21T06:01:08;45.03;;;16.67;;
60352;SDS011;46196;52.970;6.954;2023-11-21T06:03:37;41.15;;;14.88;;
60352;SDS011;46196;52.970;6.954;2023-11-21T06:06:03;33.80;;;14.65;;
60352;SDS011;46196;52.970;6.954;2023-11-21T06:08:30;38.00;;;15.57;;
60352;SDS011;46196;52.970;6.954;2023-11-21T06:10:55;36.00;;;14.73;;
60352;SDS011;46196;52.970;6.954;2023-11-21T06:13:21;34.20;;;13.40;;
60352;SDS011;46196;52.970;6.954;2023-11-21T06:15:49;37.03;;;13.65;;
60352;SDS011;46196;52.970;6.954;2023-11-21T06:18:16;29.23;;;12.52;;
60352;SDS011;46196;52.970;6.954;2023-11-21T06:20:44;30.27;;;12.32;;
60352;SDS011;46196;52.970;6.954;2023-11-21T06:23:10;30.08;;;12.18;;
60352;SDS011;46196;52.970;6.954;2023-11-21T06:25:36;26.58;;;11.95;;
60352;SDS011;46196;52.970;6.954;2023-11-21T06:28:02;22.88;;;10.95;;
60352;SDS011;46196;52.970;6.954;2023-11-21T06:30:28;24.77;;;10.63;;
60352;SDS011;46196;52.970;6.954;2023-11-21T06:32:54;27.77;;;11.82;;
60352;SDS011;46196;52.970;6.954;2023-11-21T06:35:21;34.60;;;13.45;;
60352;SDS011;46196;52.970;6.954;2023-11-21T06:37:46;30.98;;;12.77;;
60352;SDS011;46196;52.970;6.954;2023-11-21T06:40:13;28.45;;;12.60;;
60352;SDS011;46196;52.970;6.954;2023-11-21T06:42:43;26.35;;;11.30;;
60352;SDS011;46196;52.970;6.954;2023-11-21T06:45:09;30.75;;;13.77;;
60352;SDS011;46196;52.970;6.954;2023-11-21T06:47:36;29.05;;;11.57;;
60352;SDS011;46196;52.970;6.954;2023-11-21T06:50:03;24.92;;;10.35;;
60352;SDS011;46196;52.970;6.954;2023-11-21T06:52:29;23.13;;;10.88;;
60352;SDS011;46196;52.970;6.954;2023-11-21T06:54:54;23.90;;;9.57;;
60352;SDS011;46196;52.970;6.954;2023-11-21T06:57:22;22.55;;;9.98;;
60352;SDS011;46196;52.970;6.954;2023-11-21T06:59:48;27.80;;;9.77;;
60352;SDS011;46196;52.970;6.954;2023-11-21T07:02:15;19.67;;;9.48;;
60352;SDS011;46196;52.970;6.954;2023-11-21T07:04:43;20.38;;;9.35;;
60352;SDS011;46196;52.970;6.954;2023-11-21T07:07:11;19.58;;;8.55;;
60352;SDS011;46196;52.970;6.954;2023-11-21T07:09:37;18.58;;;8.00;;
60352;SDS011;46196;52.970;6.954;2023-11-21T07:12:02;13.85;;;6.80;;
60352;SDS011;46196;52.970;6.954;2023-11-21T07:14:31;15.40;;;7.20;;
60352;SDS011;46196;52.970;6.954;2023-11-21T07:16:57;14.57;;;6.60;;
60352;SDS011;46196;52.970;6.954;2023-11-21T07:19:23;13.88;;;6.45;;
60352;SDS011;46196;52.970;6.954;2023-11-21T07:21:48;14.45;;;7.22;;
60352;SDS011;46196;52.970;6.954;2023-11-21T07:24:17;15.13;;;6.45;;
60352;SDS011;46196;52.970;6.954;2023-11-21T07:26:43;14.75;;;7.38;;
60352;SDS011;46196;52.970;6.954;2023-11-21T07:29:08;17.88;;;8.13;;
60352;SDS011;46196;52.970;6.954;2023-11-21T07:31:34;16.33;;;8.15;;
60352;SDS011;46196;52.970;6.954;2023-11-21T07:34:00;28.75;;;9.27;;
60352;SDS011;46196;52.970;6.954;2023-11-21T07:36:26;21.63;;;9.43;;
60352;SDS011;46196;52.970;6.954;2023-11-21T07:38:51;21.30;;;9.50;;
60352;SDS011;46196;52.970;6.954;2023-11-21T07:41:17;21.73;;;9.27;;
60352;SDS011;46196;52.970;6.954;2023-11-21T07:43:44;25.25;;;9.95;;
60352;SDS011;46196;52.970;6.954;2023-11-21T07:46:10;26.00;;;11.23;;
60352;SDS011;46196;52.970;6.954;2023-11-21T07:48:37;28.35;;;10.05;;
60352;SDS011;46196;52.970;6.954;2023-11-21T07:51:04;25.20;;;10.38;;
60352;SDS011;46196;52.970;6.954;2023-11-21T07:53:30;22.67;;;10.20;;
60352;SDS011;46196;52.970;6.954;2023-11-21T07:55:56;26.75;;;11.07;;
60352;SDS011;46196;52.970;6.954;2023-11-21T07:58:22;22.95;;;11.00;;
60352;SDS011;46196;52.970;6.954;2023-11-21T08:00:49;29.45;;;11.93;;
60352;SDS011;46196;52.970;6.954;2023-11-21T08:03:15;23.65;;;10.30;;
60352;SDS011;46196;52.970;6.954;2023-11-21T08:05:41;25.60;;;10.77;;
60352;SDS011;46196;52.970;6.954;2023-11-21T08:08:07;24.75;;;10.77;;
60352;SDS011;46196;52.970;6.954;2023-11-21T08:10:34;23.52;;;11.02;;
60352;SDS011;46196;52.970;6.954;2023-11-21T08:13:04;23.70;;;11.75;;
60352;SDS011;46196;52.970;6.954;2023-11-21T08:15:31;29.23;;;12.18;;
60352;SDS011;46196;52.970;6.954;2023-11-21T08:17:58;22.45;;;12.27;;
60352;SDS011;46196;52.970;6.954;2023-11-21T08:22:53;24.70;;;10.63;;
60352;SDS011;46196;52.970;6.954;2023-11-21T08:25:21;22.33;;;10.38;;
60352;SDS011;46196;52.970;6.954;2023-11-21T08:27:47;22.60;;;11.77;;
60352;SDS011;46196;52.970;6.954;2023-11-21T08:30:13;23.08;;;10.93;;
60352;SDS011;46196;52.970;6.954;2023-11-21T08:32:39;23.30;;;11.07;;
60352;SDS011;46196;52.970;6.954;2023-11-21T08:35:06;30.05;;;11.55;;
60352;SDS011;46196;52.970;6.954;2023-11-21T08:37:33;26.27;;;12.20;;
60352;SDS011;46196;52.970;6.954;2023-11-21T08:40:02;21.27;;;11.32;;
60352;SDS011;46196;52.970;6.954;2023-11-21T08:42:41;20.27;;;10.13;;
60352;SDS011;46196;52.970;6.954;2023-11-21T08:45:08;19.48;;;10.10;;
60352;SDS011;46196;52.970;6.954;2023-11-21T08:47:34;21.92;;;11.00;;
60352;SDS011;46196;52.970;6.954;2023-11-21T08:50:02;21.38;;;10.30;;
60352;SDS011;46196;52.970;6.954;2023-11-21T08:52:28;23.00;;;10.88;;
60352;SDS011;46196;52.970;6.954;2023-11-21T08:54:53;21.90;;;11.30;;
60352;SDS011;46196;52.970;6.954;2023-11-21T08:57:23;24.13;;;11.32;;
60352;SDS011;46196;52.970;6.954;2023-11-21T08:59:49;20.88;;;10.40;;
60352;SDS011;46196;52.970;6.954;2023-11-21T09:02:21;21.83;;;10.35;;
60352;SDS011;46196;52.970;6.954;2023-11-21T09:04:48;21.95;;;11.00;;
60352;SDS011;46196;52.970;6.954;2023-11-21T09:07:14;22.63;;;11.00;;
60352;SDS011;46196;52.970;6.954;2023-11-21T09:09:40;20.45;;;10.35;;
60352;SDS011;46196;52.970;6.954;2023-11-21T09:12:06;21.60;;;10.60;;
60352;SDS011;46196;52.970;6.954;2023-11-21T09:14:32;20.15;;;10.55;;
60352;SDS011;46196;52.970;6.954;2023-11-21T09:16:57;21.85;;;11.18;;
60352;SDS011;46196;52.970;6.954;2023-11-21T09:19:23;27.38;;;12.10;;
60352;SDS011;46196;52.970;6.954;2023-11-21T09:21:50;25.75;;;11.15;;
60352;SDS011;46196;52.970;6.954;2023-11-21T09:24:15;22.65;;;9.82;;
60352;SDS011;46196;52.970;6.954;2023-11-21T09:26:41;20.80;;;10.27;;
60352;SDS011;46196;52.970;6.954;2023-11-21T09:29:07;27.30;;;11.05;;
60352;SDS011;46196;52.970;6.954;2023-11-21T09:31:33;21.13;;;10.27;;
60352;SDS011;46196;52.970;6.954;2023-11-21T09:33:59;25.95;;;11.80;;
60352;SDS011;46196;52.970;6.954;2023-11-21T09:36:24;20.30;;;11.38;;
60352;SDS011;46196;52.970;6.954;2023-11-21T09:38:52;19.98;;;11.40;;
60352;SDS011;46196;52.970;6.954;2023-11-21T09:41:27;28.30;;;12.55;;
60352;SDS011;46196;52.970;6.954;2023-11-21T09:44:02;18.83;;;11.23;;
60352;SDS011;46196;52.970;6.954;2023-11-21T09:46:32;17.02;;;9.88;;
60352;SDS011;46196;52.970;6.954;2023-11-21T09:48:58;26.15;;;10.20;;
60352;SDS011;46196;52.970;6.954;2023-11-21T09:51:30;18.88;;;9.13;;
60352;SDS011;46196;52.970;6.954;2023-11-21T09:53:58;13.40;;;8.23;;
60352;SDS011;46196;52.970;6.954;2023-11-21T09:56:27;15.77;;;9.13;;
60352;SDS011;46196;52.970;6.954;2023-11-21T09:58:55;17.63;;;8.93;;
60352;SDS011;46196;52.970;6.954;2023-11-21T10:01:22;17.67;;;9.32;;
60352;SDS011;46196;52.970;6.954;2023-11-21T10:03:49;18.00;;;9.30;;
60352;SDS011;46196;52.970;6.954;2023-11-21T10:06:15;16.73;;;8.48;;
60352;SDS011;46196;52.970;6.954;2023-11-21T10:08:43;15.70;;;8.45;;
60352;SDS011;46196;52.970;6.954;2023-11-21T10:11:10;17.48;;;9.05;;
60352;SDS011;46196;52.970;6.954;2023-11-21T10:13:37;13.82;;;7.10;;
60352;SDS011;46196;52.970;6.954;2023-11-21T10:16:04;13.20;;;7.68;;
60352;SDS011;46196;52.970;6.954;2023-11-21T10:18:32;10.80;;;7.07;;
60352;SDS011;46196;52.970;6.954;2023-11-21T10:20:59;10.68;;;6.72;;
60352;SDS011;46196;52.970;6.954;2023-11-21T10:23:25;11.57;;;6.65;;
60352;SDS011;46196;52.970;6.954;2023-11-21T10:25:52;12.43;;;6.75;;
60352;SDS011;46196;52.970;6.954;2023-11-21T10:28:20;11.35;;;5.93;;
60352;SDS011;46196;52.970;6.954;2023-11-21T10:30:48;10.25;;;6.28;;
60352;SDS011;46196;52.970;6.954;2023-11-21T10:33:13;10.25;;;6.13;;
60352;SDS011;46196;52.970;6.954;2023-11-21T10:35:46;11.02;;;6.53;;
60352;SDS011;46196;52.970;6.954;2023-11-21T10:38:16;11.93;;;6.85;;
60352;SDS011;46196;52.970;6.954;2023-11-21T10:40:46;10.68;;;6.63;;
60352;SDS011;46196;52.970;6.954;2023-11-21T10:43:13;10.25;;;6.63;;
60352;SDS011;46196;52.970;6.954;2023-11-21T10:45:40;8.75;;;6.00;;
60352;SDS011;46196;52.970;6.954;2023-11-21T10:48:11;11.27;;;7.50;;
60352;SDS011;46196;52.970;6.954;2023-11-21T10:50:42;15.38;;;7.80;;
60352;SDS011;46196;52.970;6.954;2023-11-21T10:53:09;11.55;;;6.22;;
60352;SDS011;46196;52.970;6.954;2023-11-21T10:55:37;10.52;;;6.18;;
60352;SDS011;46196;52.970;6.954;2023-11-21T10:58:03;10.15;;;6.53;;
60352;SDS011;46196;52.970;6.954;2023-11-21T11:00:30;11.65;;;6.57;;
60352;SDS011;46196;52.970;6.954;2023-11-21T11:02:57;10.80;;;6.00;;
60352;SDS011;46196;52.970;6.954;2023-11-21T11:05:24;10.20;;;6.35;;
60352;SDS011;46196;52.970;6.954;2023-11-21T11:08:04;13.55;;;6.38;;
60352;SDS011;46196;52.970;6.954;2023-11-21T11:10:30;11.43;;;6.60;;
60352;SDS011;46196;52.970;6.954;2023-11-21T11:12:57;13.45;;;6.90;;
60352;SDS011;46196;52.970;6.954;2023-11-21T11:15:24;11.25;;;6.47;;
60352;SDS011;46196;52.970;6.954;2023-11-21T11:17:51;12.50;;;6.38;;
60352;SDS011;46196;52.970;6.954;2023-11-21T11:20:17;10.45;;;7.38;;
60352;SDS011;46196;52.970;6.954;2023-11-21T11:26:09;9.48;;;5.78;;
60352;SDS011;46196;52.970;6.954;2023-11-21T11:28:47;10.02;;;5.82;;
60352;SDS011;46196;52.970;6.954;2023-11-21T11:37:09;8.40;;;5.90;;
60352;SDS011;46196;52.970;6.954;2023-11-21T11:39:35;9.95;;;5.75;;
60352;SDS011;46196;52.970;6.954;2023-11-21T11:42:06;9.10;;;6.25;;
60352;SDS011;46196;52.970;6.954;2023-11-21T11:47:31;8.70;;;5.70;;
60352;SDS011;46196;52.970;6.954;2023-11-21T11:52:48;7.65;;;5.85;;
60352;SDS011;46196;52.970;6.954;2023-11-21T11:55:17;7.80;;;5.15;;
60352;SDS011;46196;52.970;6.954;2023-11-21T11:57:44;12.50;;;5.43;;
60352;SDS011;46196;52.970;6.954;2023-11-21T12:00:17;11.50;;;6.22;;
60352;SDS011;46196;52.970;6.954;2023-11-21T12:02:55;8.73;;;5.45;;
60352;SDS011;46196;52.970;6.954;2023-11-21T12:05:24;11.98;;;5.65;;
60352;SDS011;46196;52.970;6.954;2023-11-21T12:07:53;9.75;;;5.38;;
60352;SDS011;46196;52.970;6.954;2023-11-21T12:10:55;7.03;;;4.20;;
60352;SDS011;46196;52.970;6.954;2023-11-21T12:13:15;9.60;;;5.50;;
60352;SDS011;46196;52.970;6.954;2023-11-21T12:15:41;7.15;;;5.00;;
60352;SDS011;46196;52.970;6.954;2023-11-21T12:18:07;8.05;;;5.50;;
60352;SDS011;46196;52.970;6.954;2023-11-21T12:20:33;10.88;;;5.70;;
60352;SDS011;46196;52.970;6.954;2023-11-21T12:23:03;8.60;;;5.35;;
60352;SDS011;46196;52.970;6.954;2023-11-21T12:25:30;11.25;;;5.78;;
60352;SDS011;46196;52.970;6.954;2023-11-21T12:27:58;9.25;;;5.07;;
60352;SDS011;46196;52.970;6.954;2023-11-21T12:30:28;8.80;;;5.30;;
60352;SDS011;46196;52.970;6.954;2023-11-21T12:32:56;7.72;;;4.93;;
60352;SDS011;46196;52.970;6.954;2023-11-21T12:35:27;7.05;;;4.82;;
60352;SDS011;46196;52.970;6.954;2023-11-21T12:37:55;9.27;;;5.53;;
60352;SDS011;46196;52.970;6.954;2023-11-21T12:40:24;9.05;;;5.57;;
60352;SDS011;46196;52.970;6.954;2023-11-21T12:42:54;8.35;;;5.03;;
60352;SDS011;46196;52.970;6.954;2023-11-21T12:45:25;8.93;;;4.90;;
60352;SDS011;46196;52.970;6.954;2023-11-21T12:47:56;10.85;;;5.03;;
60352;SDS011;46196;52.970;6.954;2023-11-21T12:50:32;12.20;;;5.45;;
60352;SDS011;46196;52.970;6.954;2023-11-21T12:53:05;8.82;;;5.57;;
60352;SDS011;46196;52.970;6.954;2023-11-21T12:55:34;12.32;;;5.43;;
60352;SDS011;46196;52.970;6.954;2023-11-21T12:58:03;6.95;;;5.38;;
60352;SDS011;46196;52.970;6.954;2023-11-21T13:00:43;9.98;;;5.32;;
60352;SDS011;46196;52.970;6.954;2023-11-21T13:03:11;8.88;;;4.82;;
60352;SDS011;46196;52.970;6.954;2023-11-21T13:05:42;10.02;;;5.45;;
60352;SDS011;46196;52.970;6.954;2023-11-21T13:08:15;10.02;;;6.63;;
60352;SDS011;46196;52.970;6.954;2023-11-21T13:10:45;11.45;;;5.75;;
60352;SDS011;46196;52.970;6.954;2023-11-21T13:13:14;8.82;;;4.97;;
60352;SDS011;46196;52.970;6.954;2023-11-21T13:18:24;9.70;;;5.03;;
60352;SDS011;46196;52.970;6.954;2023-11-21T13:20:57;10.45;;;6.00;;
60352;SDS011;46196;52.970;6.954;2023-11-21T13:23:24;9.25;;;5.35;;
60352;SDS011;46196;52.970;6.954;2023-11-21T13:25:51;7.75;;;5.00;;
60352;SDS011;46196;52.970;6.954;2023-11-21T13:28:18;8.27;;;5.22;;
60352;SDS011;46196;52.970;6.954;2023-11-21T13:30:46;6.68;;;4.72;;
60352;SDS011;46196;52.970;6.954;2023-11-21T13:33:13;8.73;;;5.22;;
60352;SDS011;46196;52.970;6.954;2023-11-21T13:35:43;7.28;;;4.75;;
60352;SDS011;46196;52.970;6.954;2023-11-21T13:38:14;8.38;;;5.40;;
60352;SDS011;46196;52.970;6.954;2023-11-21T13:40:51;8.23;;;4.88;;
60352;SDS011;46196;52.970;6.954;2023-11-21T13:43:22;11.32;;;5.63;;
60352;SDS011;46196;52.970;6.954;2023-11-21T13:45:51;9.00;;;4.85;;
60352;SDS011;46196;52.970;6.954;2023-11-21T13:48:26;8.00;;;5.25;;
60352;SDS011;46196;52.970;6.954;2023-11-21T13:51:07;10.32;;;4.97;;
60352;SDS011;46196;52.970;6.954;2023-11-21T13:53:45;8.73;;;5.40;;
60352;SDS011;46196;52.970;6.954;2023-11-21T13:56:17;7.72;;;5.15;;
60352;SDS011;46196;52.970;6.954;2023-11-21T13:58:49;10.15;;;5.57;;
60352;SDS011;46196;52.970;6.954;2023-11-21T14:01:23;8.65;;;5.55;;
60352;SDS011;46196;52.970;6.954;2023-11-21T14:03:55;8.75;;;5.20;;
60352;SDS011;46196;52.970;6.954;2023-11-21T14:06:38;9.32;;;5.57;;
60352;SDS011;46196;52.970;6.954;2023-11-21T14:09:14;14.25;;;5.28;;
60352;SDS011;46196;52.970;6.954;2023-11-21T14:11:48;7.82;;;5.22;;
60352;SDS011;46196;52.970;6.954;2023-11-21T14:14:18;9.73;;;5.22;;
60352;SDS011;46196;52.970;6.954;2023-11-21T14:16:44;9.80;;;6.07;;
60352;SDS011;46196;52.970;6.954;2023-11-21T14:19:10;7.63;;;4.95;;
60352;SDS011;46196;52.970;6.954;2023-11-21T14:21:44;9.45;;;5.28;;
60352;SDS011;46196;52.970;6.954;2023-11-21T14:24:11;8.07;;;5.13;;
60352;SDS011;46196;52.970;6.954;2023-11-21T14:26:41;8.90;;;5.28;;
60352;SDS011;46196;52.970;6.954;2023-11-21T14:29:08;7.75;;;4.60;;
60352;SDS011;46196;52.970;6.954;2023-11-21T14:31:36;9.10;;;5.00;;
60352;SDS011;46196;52.970;6.954;2023-11-21T14:34:02;8.15;;;4.88;;
60352;SDS011;46196;52.970;6.954;2023-11-21T14:36:28;7.18;;;4.95;;
60352;SDS011;46196;52.970;6.954;2023-11-21T14:38:54;5.70;;;4.40;;
60352;SDS011;46196;52.970;6.954;2023-11-21T14:41:19;7.30;;;4.90;;
60352;SDS011;46196;52.970;6.954;2023-11-21T14:43:45;6.25;;;4.55;;
60352;SDS011;46196;52.970;6.954;2023-11-21T14:46:14;6.57;;;4.60;;
60352;SDS011;46196;52.970;6.954;2023-11-21T14:48:42;6.90;;;4.72;;
60352;SDS011;46196;52.970;6.954;2023-11-21T14:51:08;6.20;;;4.35;;
60352;SDS011;46196;52.970;6.954;2023-11-21T14:53:37;7.45;;;4.50;;
60352;SDS011;46196;52.970;6.954;2023-11-21T14:56:21;6.28;;;4.40;;